Kegley, West Virginia
Current Conditions -  °F | °C
As of 6:59 PM on Friday 31 Oct 2014 (Local Time) from KBLF Reporting Station
Light Rain Light Rain  
Wind Chill: 36°   Ceiling: 700
Heat Index: 40°   Visibility: 10mi
Dew Point: 35°   Wind: 6mph
Humidity: 83%   Direction: 300°WNW
Pressure: 29.83"   Gusts: NA
Location:  37.4°N, 81.13°W
Report Text: KBLF 312259Z AUTO 30005KT 10SM -RA BKN007 OVC012 04/02 A2983 RMK AO2 CIG 006V010 P0000 T00440017
Loading
Personal Weather Stations






























Interactive Weather Map
Tropical Storm Tracking
New forecast layout! Learn more

10-Day Weather Forecast

Advertisements
Track Severe Weather on mobile